Ingonish, Canada
Current Conditions -  °F | °C
As of 11:00 PM on Wednesday 22 Oct 2014 (Local Time) from CYQY Reporting Station
Broken Clouds Broken Clouds  
Wind Chill: 50°   Ceiling: 2300
Heat Index: 50°   Visibility: 15mi
Dew Point: 45°   Wind: 9mph
Humidity: 82%   Direction: 90°E
Pressure: 30.36"   Gusts: NA
Location:  46.69°N, 60.37°W
Report Text: CYQY 230200Z 09008KT 15SM BKN023 BKN150 BKN220 10/07 A3036 RMK SC5AC1CI1 SLP282
Loading
Personal Weather Stations






























Interactive Weather Map
Tropical Storm Tracking
New forecast layout! Learn more

10-Day Weather Forecast

Advertisements
Track Severe Weather on mobile